Hawthorn, Alabama
Current Conditions -  °F | °C
As of 5:56 AM on Saturday 25 Oct 2014 (Local Time) from KMOB Reporting Station
Few Clouds Few Clouds  
Wind Chill: 47°   Ceiling: Unl
Heat Index: 47°   Visibility: 10mi
Dew Point: 45°   Wind: 0mph
Humidity: 93%   Direction: NA
Pressure: 30.1"   Gusts: NA
Location:  31.3942°N, 88.065°W
Report Text: KMOB 251056Z 00000KT 10SM FEW250 08/07 A3010 RMK AO2 SLP190 T00830072
Loading
Personal Weather Stations






























Interactive Weather Map
Tropical Storm Tracking
New forecast layout! Learn more

10-Day Weather Forecast

Advertisements
Track Severe Weather on mobile